createdAt,value
2022-10-10T07:01:04.234Z,12.81
2022-10-10T07:03:32.546Z,14.97
2022-10-10T07:06:02.324Z,16.19
2022-10-10T07:08:30.795Z,15.24
2022-10-10T07:10:58.465Z,14.09
2022-10-10T07:13:26.191Z,13.27
2022-10-10T07:15:54.103Z,13.20
2022-10-10T07:18:22.130Z,15.04
2022-10-10T07:20:50.005Z,15.49
2022-10-10T07:23:17.970Z,14.49
2022-10-10T07:25:45.950Z,13.64
2022-10-10T07:28:14.122Z,13.00
2022-10-10T07:30:43.916Z,13.35
2022-10-10T07:33:15.976Z,15.25
2022-10-10T07:35:53.540Z,15.42
2022-10-10T07:38:21.242Z,14.38
2022-10-10T07:40:48.956Z,13.62
2022-10-10T07:43:16.627Z,13.04
2022-10-10T07:45:44.320Z,12.92
2022-10-10T07:48:12.553Z,14.67
2022-10-10T07:50:42.595Z,15.48
2022-10-10T07:53:11.753Z,14.62
2022-10-10T07:55:41.074Z,13.84
2022-10-10T07:58:10.904Z,13.28
2022-10-10T08:00:42.539Z,13.00
2022-10-10T08:03:12.494Z,14.49
2022-10-10T08:05:47.014Z,15.36
2022-10-10T08:08:14.703Z,14.60
2022-10-10T08:10:43.840Z,13.91
2022-10-10T08:13:11.518Z,13.40
2022-10-10T08:15:40.216Z,13.06
2022-10-10T08:18:08.002Z,14.20
2022-10-10T08:20:35.695Z,15.66
2022-10-10T08:23:03.427Z,15.11
2022-10-10T08:25:31.294Z,14.36
2022-10-10T08:27:59.285Z,13.82
2022-10-10T08:30:27.109Z,13.42
2022-10-10T08:32:55.169Z,13.34
2022-10-10T08:35:23.040Z,15.08
2022-10-10T08:37:50.712Z,16.27
2022-10-10T08:40:21.242Z,15.60
2022-10-10T08:42:53.155Z,14.86
2022-10-10T08:45:25.021Z,14.33
2022-10-10T08:48:01.587Z,13.96
2022-10-10T08:50:41.007Z,13.68
2022-10-10T08:53:21.718Z,13.63
2022-10-10T08:55:50.102Z,15.61
2022-10-10T08:58:27.170Z,16.50
2022-10-10T09:00:56.986Z,15.77
2022-10-10T09:03:35.268Z,15.16
2022-10-10T09:06:02.915Z,14.72
2022-10-10T09:08:47.279Z,14.41
2022-10-10T09:11:37.936Z,14.16
2022-10-10T09:14:36.967Z,13.95
2022-10-10T09:17:52.863Z,13.79
2022-10-10T09:20:53.647Z,13.77
2022-10-10T09:23:39.768Z,15.89
2022-10-10T09:26:12.666Z,16.42
2022-10-10T09:28:48.248Z,15.81
2022-10-10T09:31:19.917Z,15.32
2022-10-10T09:34:00.300Z,15.00
2022-10-10T09:36:34.325Z,14.75
2022-10-10T09:39:13.200Z,14.58
2022-10-10T09:41:47.540Z,14.42
2022-10-10T09:44:19.601Z,14.33
2022-10-10T09:46:47.827Z,14.24
2022-10-10T09:49:17.815Z,14.18
2022-10-10T09:51:46.585Z,14.12
2022-10-10T09:54:17.413Z,14.06
2022-10-10T09:56:50.635Z,14.01
2022-10-10T09:59:41.881Z,13.97
2022-10-10T10:02:19.520Z,13.95
2022-10-10T10:04:49.310Z,13.95
2022-10-10T10:07:36.323Z,14.70
2022-10-10T10:10:25.567Z,17.09
2022-10-10T10:12:55.180Z,17.11
2022-10-10T10:15:32.235Z,16.53
2022-10-10T10:18:27.480Z,16.11
2022-10-10T10:21:23.725Z,15.82
2022-10-10T10:23:59.507Z,15.61
2022-10-10T10:26:45.672Z,15.48
2022-10-10T10:29:28.678Z,15.38
2022-10-10T10:32:05.332Z,15.32
2022-10-10T10:34:32.983Z,15.27
2022-10-10T10:37:23.252Z,15.23
2022-10-10T10:40:12.195Z,15.21
2022-10-10T10:42:51.184Z,15.19
2022-10-10T10:45:26.673Z,15.18
2022-10-10T10:47:57.248Z,15.19
2022-10-10T10:50:52.491Z,15.20
2022-10-10T10:53:42.453Z,15.23
2022-10-10T10:56:22.602Z,15.25
2022-10-10T11:02:07.241Z,15.22
2022-10-10T11:05:17.913Z,15.19
2022-10-10T11:08:51.734Z,15.17
2022-10-10T11:11:45.858Z,15.16
2022-10-10T11:14:34.326Z,15.15
2022-10-10T11:17:16.618Z,15.14
2022-10-10T11:19:58.179Z,15.14
2022-10-10T11:22:31.683Z,15.13
2022-10-10T11:25:23.941Z,15.13
2022-10-10T11:28:06.560Z,15.14
2022-10-10T11:30:39.412Z,15.15
2022-10-10T11:33:16.417Z,15.16
2022-10-10T11:35:55.684Z,15.18
2022-10-10T11:38:32.086Z,15.21
2022-10-10T11:41:05.564Z,15.22
2022-10-10T11:43:47.723Z,15.26
2022-10-10T11:46:29.475Z,16.62
2022-10-10T11:49:06.028Z,18.24
2022-10-10T11:52:09.513Z,17.81
2022-10-10T11:54:55.444Z,17.24
2022-10-10T11:57:33.596Z,16.93
2022-10-10T12:00:10.503Z,16.72
2022-10-10T12:02:43.127Z,16.55
2022-10-10T12:05:28.569Z,16.41
2022-10-10T12:08:07.346Z,16.29
2022-10-10T12:10:37.788Z,16.20
2022-10-10T12:13:30.857Z,16.11
2022-10-10T12:16:05.702Z,16.02
2022-10-10T12:18:44.722Z,15.94
2022-10-10T12:21:15.885Z,15.88
2022-10-10T12:23:48.364Z,15.82
2022-10-10T12:26:19.373Z,15.77
2022-10-10T12:29:09.933Z,15.73
2022-10-10T12:31:39.634Z,16.74
2022-10-10T12:34:15.995Z,18.62
2022-10-10T12:36:55.833Z,18.36
2022-10-10T12:39:35.957Z,17.78
2022-10-10T12:42:04.322Z,17.38
2022-10-10T12:44:35.095Z,17.12
2022-10-10T12:48:03.950Z,16.92
2022-10-10T12:50:32.546Z,16.73
2022-10-10T12:53:03.916Z,16.59
2022-10-10T12:55:45.079Z,16.49
2022-10-10T12:58:40.987Z,16.40
2022-10-10T13:01:31.891Z,16.32
2022-10-10T13:04:00.201Z,16.26
2022-10-10T13:06:40.428Z,16.20
2022-10-10T13:09:35.084Z,16.15
2022-10-10T13:12:06.002Z,16.40
2022-10-10T13:14:42.958Z,18.30
2022-10-10T13:17:21.714Z,18.86
2022-10-10T13:19:50.471Z,18.25
2022-10-10T13:22:19.236Z,17.82
2022-10-10T13:24:48.233Z,17.50
2022-10-10T13:27:19.148Z,17.28
2022-10-10T13:29:47.418Z,17.11
2022-10-10T13:32:20.145Z,16.96
2022-10-10T13:34:59.075Z,16.83
2022-10-10T13:37:27.837Z,16.71
2022-10-10T13:39:56.106Z,16.62
2022-10-10T13:42:33.529Z,16.54
2022-10-10T13:45:26.564Z,16.47
2022-10-10T13:48:02.256Z,16.40
2022-10-10T13:51:47.027Z,17.90
2022-10-10T13:54:39.693Z,19.35
2022-10-10T13:57:14.488Z,19.12
2022-10-10T13:59:44.300Z,18.53
2022-10-10T14:02:15.346Z,18.12
2022-10-10T14:04:50.724Z,17.83
2022-10-10T14:07:28.088Z,17.59
2022-10-10T14:10:05.014Z,17.40
2022-10-10T14:12:41.451Z,17.23
2022-10-10T14:15:44.907Z,17.09
2022-10-10T14:18:17.455Z,16.94
2022-10-10T14:20:46.399Z,16.82
2022-10-10T14:23:14.697Z,16.72
2022-10-10T14:25:45.124Z,16.70
2022-10-10T14:28:17.071Z,17.98
2022-10-10T14:30:45.023Z,19.40
2022-10-10T14:33:14.988Z,18.97
2022-10-10T14:35:42.927Z,18.39
2022-10-10T14:38:12.698Z,18.00
2022-10-10T14:40:46.521Z,17.71
2022-10-10T14:43:16.763Z,17.48
2022-10-10T14:45:45.117Z,17.29
2022-10-10T14:48:13.072Z,17.12
2022-10-10T14:50:44.197Z,16.98
2022-10-10T14:53:13.627Z,17.09
2022-10-10T14:55:43.705Z,18.78
2022-10-10T14:58:21.364Z,19.48
2022-10-10T15:00:51.539Z,18.85
2022-10-10T15:03:19.269Z,18.33
2022-10-10T15:05:50.955Z,17.97
2022-10-10T15:08:19.347Z,17.70
2022-10-10T15:10:48.194Z,17.48
2022-10-10T15:13:16.836Z,17.30
2022-10-10T15:15:46.521Z,17.15
2022-10-10T15:18:39.620Z,18.07
2022-10-10T15:21:08.859Z,19.61
2022-10-10T15:23:36.659Z,19.16
2022-10-10T15:26:05.741Z,18.58
2022-10-10T15:28:34.633Z,18.17
2022-10-10T15:31:02.727Z,17.86
2022-10-10T15:33:31.033Z,17.61
2022-10-10T15:36:09.096Z,17.39
2022-10-10T15:38:39.544Z,17.30
2022-10-10T15:41:09.585Z,18.65
2022-10-10T15:43:52.045Z,19.64
2022-10-10T15:46:27.857Z,19.01
2022-10-10T15:49:01.035Z,18.38
2022-10-10T15:51:29.541Z,17.94
2022-10-10T15:54:00.720Z,17.60
2022-10-10T15:56:30.587Z,17.34
2022-10-10T15:59:00.536Z,18.38
2022-10-10T16:01:29.974Z,19.77
2022-10-10T16:03:58.312Z,19.23
2022-10-10T16:06:26.006Z,18.51
2022-10-10T16:09:10.114Z,17.99
2022-10-10T16:11:42.149Z,17.56
2022-10-10T16:15:22.845Z,18.04
2022-10-10T16:17:50.505Z,19.93
2022-10-10T16:20:18.297Z,19.89
2022-10-10T16:22:45.976Z,19.04
2022-10-10T16:25:22.731Z,18.36
2022-10-10T16:27:52.895Z,17.82
2022-10-10T16:30:21.530Z,17.41
2022-10-10T16:32:49.872Z,17.73
2022-10-10T16:35:17.817Z,19.41
2022-10-10T16:37:45.858Z,19.42
2022-10-10T16:40:13.643Z,18.58
2022-10-10T16:42:41.399Z,17.91
2022-10-10T16:45:10.226Z,17.66
2022-10-10T16:47:37.906Z,18.91
2022-10-10T16:50:06.719Z,19.84
2022-10-10T16:52:38.015Z,19.13
2022-10-10T16:55:07.684Z,18.28
2022-10-10T16:57:36.190Z,17.65
2022-10-10T17:00:07.036Z,17.58
2022-10-10T17:04:34.042Z,19.49
2022-10-10T17:07:01.991Z,18.91
2022-10-10T17:09:30.771Z,18.10
2022-10-10T17:11:58.450Z,17.45
2022-10-10T17:14:26.237Z,17.41
2022-10-10T17:19:42.295Z,19.42
2022-10-10T17:22:10.127Z,18.47
2022-10-10T17:24:37.976Z,17.66
2022-10-10T17:27:05.817Z,17.20
2022-10-10T17:29:33.757Z,18.44
2022-10-10T17:32:05.913Z,19.47
2022-10-10T17:34:34.527Z,18.59
2022-10-10T17:37:03.713Z,17.72
2022-10-10T17:39:32.045Z,17.10
2022-10-10T17:42:00.371Z,17.79
2022-10-10T17:44:28.808Z,19.27
2022-10-10T17:46:56.754Z,18.90
2022-10-10T17:49:24.582Z,17.96
2022-10-10T17:51:52.470Z,17.23
2022-10-10T17:54:20.427Z,17.54
2022-10-10T17:56:48.181Z,18.98
2022-10-10T17:59:16.114Z,18.97
2022-10-10T18:01:43.739Z,18.05
2022-10-10T18:04:15.251Z,17.31
2022-10-10T18:06:42.898Z,17.39
2022-10-10T18:09:10.766Z,18.92
2022-10-10T18:11:38.600Z,19.19
2022-10-10T18:14:06.304Z,18.23
2022-10-10T18:16:34.864Z,17.42
2022-10-10T18:19:05.763Z,17.18
2022-10-10T18:27:53.080Z,21.17
2022-10-10T18:30:21.064Z,20.19
2022-10-10T18:32:50.971Z,19.07
2022-10-10T18:35:19.477Z,18.16
2022-10-10T18:37:47.118Z,17.46
2022-10-10T18:40:16.564Z,16.97
2022-10-10T18:44:18.977Z,18.29
2022-10-10T18:46:48.631Z,17.85
2022-10-10T18:49:16.387Z,17.11
2022-10-10T18:51:45.462Z,17.42
2022-10-10T18:54:15.773Z,18.95
2022-10-10T18:56:44.435Z,18.82
2022-10-10T18:59:22.252Z,17.84
2022-10-10T19:01:52.301Z,17.03
2022-10-10T19:04:20.764Z,17.38
2022-10-10T19:06:53.216Z,18.82
2022-10-10T19:47:05.345Z,15.01
2022-10-10T19:49:33.018Z,17.10
2022-10-10T19:52:00.688Z,19.09
2022-10-10T19:54:28.407Z,18.91
2022-10-10T19:56:56.290Z,17.77
2022-10-10T19:59:24.067Z,16.95
2022-10-10T20:01:52.013Z,17.84
2022-10-10T20:04:19.913Z,19.24
2022-10-10T20:06:47.655Z,18.52
2022-10-10T20:09:15.440Z,17.56
2022-10-10T20:11:43.091Z,16.88
2022-10-10T20:15:45.077Z,18.21
2022-10-10T20:18:13.214Z,17.77
2022-10-10T20:20:43.062Z,16.99
2022-10-10T20:23:11.149Z,17.52
2022-10-10T20:25:40.802Z,19.28
2022-10-10T20:28:09.402Z,18.76
2022-10-10T20:30:43.438Z,17.70
2022-10-10T20:33:11.366Z,16.88
2022-10-10T20:38:15.430Z,19.20
2022-10-10T20:40:44.795Z,18.54
2022-10-10T20:43:14.149Z,17.56
2022-10-10T20:45:42.437Z,16.78
2022-10-10T20:48:10.117Z,16.89
2022-10-10T20:50:39.034Z,18.66
2022-10-10T20:53:07.045Z,18.55
2022-10-10T20:55:34.707Z,17.54
2022-10-10T20:58:02.468Z,16.71
2022-10-10T21:00:30.177Z,17.09
2022-10-10T21:02:58.026Z,18.92
2022-10-10T21:05:25.758Z,18.57
2022-10-10T21:07:53.445Z,17.51
2022-10-10T21:10:21.184Z,16.68
2022-10-10T21:12:48.990Z,16.82
2022-10-10T21:15:17.118Z,18.59
2022-10-10T21:17:49.389Z,18.44
2022-10-10T21:20:17.216Z,17.37
2022-10-10T21:22:45.133Z,16.54
2022-10-10T21:25:13.505Z,16.88
2022-10-10T21:27:41.245Z,18.52
2022-10-10T21:30:09.332Z,18.07
2022-10-10T21:32:37.005Z,17.05
2022-10-10T21:35:05.348Z,16.24
2022-10-10T21:37:34.589Z,16.32
2022-10-10T21:40:02.345Z,18.12
2022-10-10T21:42:30.216Z,18.01
2022-10-10T21:44:57.897Z,17.00
2022-10-10T21:47:25.541Z,16.24
2022-10-10T21:49:53.314Z,17.16
2022-10-10T21:52:21.314Z,18.50
2022-10-10T21:54:50.582Z,17.74
2022-10-10T21:57:18.514Z,16.72
2022-10-10T21:59:46.311Z,16.00
2022-10-10T22:02:13.958Z,16.97
2022-10-10T22:04:41.723Z,18.42
2022-10-10T22:07:09.434Z,17.67
2022-10-10T22:09:37.201Z,16.64
2022-10-10T22:12:05.332Z,15.95
2022-10-10T22:14:33.318Z,17.18
2022-10-10T22:17:00.947Z,18.20
2022-10-10T22:19:28.702Z,17.28
2022-10-10T22:21:56.507Z,16.33
2022-10-10T22:24:24.615Z,15.63
